»·PEaware :: N48427 KSNA-KAVX

N48427 :: KSNA-KAVX

FLIGHT INFORMATION

Flight Status: Arrived
Operator: Privately registered:
United States
More flights under this callsign
Pilot: Brian D. (22974)
Aircraft: Unknown
(P28U)
More flights by this aircraft type
Origin: KSNA John Wayne-Orange Co
United States
Destination: KAVX Catalina
United States
More flights between these airports :: More routes between these airports
Route: SLI V21 SXC
File this flight plan on PilotEdge
Remarks: I-7 test
Altitude:
(Current/Filed)
4,000ft
Speed:
(Current/Filed)
120kts
Departed: 10-Jan-20 02:17 PM
Arrived: 10-Jan-20 03:03 PM
Distance/Time
Traveled:
0nm/0:45
Distance/Time
To Go:
Arrived

Flight Plot

Page will automatically refresh every two minutes.


Map Options




Map Legend


Flown Route
Filed Route
Departure Airport
Arrival Airport
Navaid (VOR, NDB)
Fix

Horizontal Profiles

Position Reports

Time Latitude Longitude Heading Altitude Ground
Speed
10-Jan-20 13:32 33.674542 -117.872128 118 59ft 0kts
10-Jan-20 13:33 33.674542 -117.872128 118 59ft 0kts
10-Jan-20 13:34 33.674542 -117.872128 118 59ft 0kts
10-Jan-20 13:35 33.674542 -117.872128 118 59ft 0kts
10-Jan-20 13:36 33.674542 -117.872128 118 59ft 0kts
10-Jan-20 13:37 33.674542 -117.872128 118 59ft 0kts
10-Jan-20 13:38 33.674542 -117.872128 118 59ft 0kts
10-Jan-20 13:39 33.674542 -117.872128 118 59ft 0kts
10-Jan-20 13:40 33.674542 -117.872128 118 59ft 0kts
10-Jan-20 13:41 33.674542 -117.872128 118 59ft 0kts
10-Jan-20 13:42 33.674542 -117.872128 118 59ft 0kts
10-Jan-20 13:43 33.674542 -117.872128 118 59ft 0kts
10-Jan-20 13:44 33.674542 -117.872128 118 59ft 0kts
10-Jan-20 13:45 33.674542 -117.872128 118 59ft 0kts
10-Jan-20 13:46 33.674542 -117.872128 118 59ft 0kts
10-Jan-20 13:47 33.674542 -117.872128 118 59ft 0kts
10-Jan-20 13:48 33.674542 -117.872128 118 59ft 0kts
10-Jan-20 13:49 33.674542 -117.872129 118 59ft 0kts
10-Jan-20 13:50 33.674542 -117.872129 118 59ft 0kts
10-Jan-20 13:51 33.674542 -117.872129 118 59ft 0kts
10-Jan-20 13:52 33.674542 -117.872129 118 59ft 0kts
10-Jan-20 13:53 33.674542 -117.872129 118 59ft 0kts
10-Jan-20 13:54 33.674542 -117.872129 118 59ft 0kts
10-Jan-20 13:55 33.674542 -117.872129 118 59ft 0kts
10-Jan-20 13:56 33.674542 -117.872129 118 59ft 0kts
10-Jan-20 13:57 33.674542 -117.872129 118 59ft 0kts
10-Jan-20 13:58 33.674542 -117.872129 118 59ft 0kts
10-Jan-20 13:59 33.674542 -117.872129 118 59ft 0kts
10-Jan-20 14:00 33.674542 -117.872129 118 59ft 0kts
10-Jan-20 14:01 33.674542 -117.872129 118 59ft 0kts
10-Jan-20 14:02 33.674542 -117.872129 118 59ft 0kts
10-Jan-20 14:03 33.674542 -117.872129 118 59ft 0kts
10-Jan-20 14:04 33.674542 -117.872129 118 59ft 0kts
10-Jan-20 14:05 33.674542 -117.872129 118 59ft 0kts
10-Jan-20 14:06 33.674542 -117.872129 118 59ft 0kts
10-Jan-20 14:07 33.674542 -117.872129 118 59ft 0kts
10-Jan-20 14:08 33.674542 -117.872129 118 59ft 0kts
10-Jan-20 14:09 33.674542 -117.872129 118 59ft 0kts
10-Jan-20 14:10 33.674743 -117.870929 33 59ft 15kts
10-Jan-20 14:11 33.676982 -117.869517 27 59ft 12kts
10-Jan-20 14:12 33.679586 -117.867988 13 59ft 15kts
10-Jan-20 14:13 33.681191 -117.866400 115 59ft 0kts
10-Jan-20 14:14 33.681191 -117.866400 115 59ft 0kts
10-Jan-20 14:15 33.681015 -117.865989 120 59ft 14kts
10-Jan-20 14:16 33.672479 -117.870795 207 139ft 97kts
10-Jan-20 14:17 33.657181 -117.885776 229 951ft 102kts
10-Jan-20 14:18 33.641570 -117.906190 228 1402ft 106kts
10-Jan-20 14:19 33.624408 -117.929836 237 1904ft 106kts
10-Jan-20 14:20 33.609396 -117.954416 239 2368ft 105kts
10-Jan-20 14:21 33.595081 -117.980999 241 2841ft 104kts
10-Jan-20 14:22 33.581733 -118.006931 242 3260ft 104kts
10-Jan-20 14:23 33.565432 -118.039222 242 3751ft 104kts
10-Jan-20 14:24 33.547854 -118.073567 242 4018ft 116kts
10-Jan-20 14:25 33.532270 -118.104072 242 4016ft 121kts
10-Jan-20 14:26 33.518509 -118.130575 241 4015ft 117kts
10-Jan-20 14:27 33.502539 -118.161014 241 4016ft 117kts
10-Jan-20 14:29 33.486917 -118.190905 242 4016ft 118kts
10-Jan-20 14:30 33.470557 -118.223669 242 4016ft 119kts
10-Jan-20 14:31 33.453904 -118.257382 242 4016ft 119kts
10-Jan-20 14:32 33.438567 -118.288692 242 4016ft 120kts
10-Jan-20 14:33 33.424587 -118.317355 242 4016ft 120kts
10-Jan-20 14:34 33.409350 -118.348568 242 4016ft 120kts
10-Jan-20 14:35 33.395674 -118.376465 242 4016ft 120kts
10-Jan-20 14:36 33.379259 -118.409973 241 4016ft 120kts
10-Jan-20 14:37 33.354751 -118.434964 221 4012ft 121kts
10-Jan-20 14:38 33.364012 -118.460457 0 4018ft 112kts
10-Jan-20 14:39 33.386351 -118.445010 56 4017ft 115kts
10-Jan-20 14:40 33.397840 -118.419458 40 4010ft 114kts
10-Jan-20 14:41 33.422509 -118.416328 358 4016ft 112kts
10-Jan-20 14:42 33.446818 -118.414104 6 4016ft 113kts
10-Jan-20 14:43 33.469304 -118.409133 10 4016ft 113kts
10-Jan-20 14:44 33.495261 -118.428537 318 4016ft 113kts
10-Jan-20 14:45 33.512427 -118.448065 318 4016ft 113kts
10-Jan-20 14:46 33.525914 -118.462063 342 4012ft 112kts
10-Jan-20 14:47 33.545326 -118.441133 26 4012ft 112kts
10-Jan-20 14:48 33.554163 -118.415104 136 4016ft 122kts
10-Jan-20 14:49 33.528838 -118.387284 127 4016ft 121kts
10-Jan-20 14:49 33.505684 -118.375201 183 4016ft 123kts
10-Jan-20 14:51 33.476029 -118.403371 233 3997ft 122kts
10-Jan-20 14:52 33.445738 -118.409149 183 3904ft 129kts
10-Jan-20 14:52 33.417324 -118.414115 193 2755ft 119kts
10-Jan-20 14:54 33.394692 -118.432268 116 2018ft 76kts
10-Jan-20 14:54 33.402786 -118.414446 50 2119ft 79kts
10-Jan-20 14:55 33.404096 -118.417393 238 2183ft 90kts
10-Jan-20 14:56 33.393974 -118.424716 48 2397ft 80kts
10-Jan-20 14:57 33.410404 -118.403099 36 2595ft 87kts
10-Jan-20 14:58 33.404819 -118.416042 237 1636ft 91kts
10-Jan-20 14:59 33.401898 -118.421587 10 1926ft 73kts
10-Jan-20 15:00 33.415107 -118.397224 83 2359ft 94kts
10-Jan-20 15:01 33.408070 -118.407289 267 1930ft 88kts
10-Jan-20 15:02 33.402630 -118.419755 232 1605ft 12kts
10-Jan-20 15:03 33.403612 -118.416600 111 1605ft 13kts
10-Jan-20 15:04 33.403781 -118.414916 246 1605ft 1kts
10-Jan-20 15:05 33.403776 -118.414931 245 1605ft 0kts
10-Jan-20 15:06 33.403776 -118.414931 245 1605ft 0kts
10-Jan-20 15:07 33.403776 -118.414931 245 1605ft 0kts
10-Jan-20 15:08 33.403776 -118.414931 245 1605ft 0kts
10-Jan-20 15:09 33.403776 -118.414931 245 1605ft 0kts
10-Jan-20 15:10 33.403776 -118.414931 245 1605ft 0kts
10-Jan-20 15:11 33.674542 -117.872129 118 59ft 0kts
10-Jan-20 15:12 33.674542 -117.872129 118 59ft 0kts

Navigation Log

Ident Type
Flight plan parsing failed, navigation log unavailable